createdAt,value
2017-11-04T00:01:04.105Z,79.30
2017-11-04T00:03:31.630Z,79.30
2017-11-04T00:05:59.891Z,79.60
2017-11-04T00:08:27.423Z,79.20
2017-11-04T00:10:54.924Z,78.90
2017-11-04T00:13:23.228Z,78.70
2017-11-04T00:15:50.725Z,78.70
2017-11-04T00:18:18.253Z,78.50
2017-11-04T00:20:45.789Z,78.50
2017-11-04T00:23:14.052Z,78.70
2017-11-04T00:25:42.316Z,78.70
2017-11-04T00:28:09.838Z,78.70
2017-11-04T00:30:37.372Z,78.70
2017-11-04T00:33:04.907Z,78.70
2017-11-04T00:35:33.173Z,78.70
2017-11-04T00:38:01.469Z,78.70
2017-11-04T00:40:28.982Z,78.70
2017-11-04T00:42:56.548Z,79.00
2017-11-04T00:45:24.070Z,79.00
2017-11-04T00:47:51.568Z,79.00
2017-11-04T00:50:19.098Z,78.90
2017-11-04T00:52:46.622Z,79.40
2017-11-04T00:55:14.172Z,79.20
2017-11-04T00:57:41.682Z,79.10
2017-11-04T01:00:09.180Z,79.30
2017-11-04T01:02:37.495Z,79.20
2017-11-04T01:05:05.020Z,79.20
2017-11-04T01:07:32.537Z,79.40
2017-11-04T01:10:00.032Z,79.50
2017-11-04T01:12:27.578Z,79.60
2017-11-04T01:14:55.894Z,79.20
2017-11-04T01:17:23.385Z,79.20
2017-11-04T01:19:50.932Z,79.00
2017-11-04T01:22:18.466Z,79.40
2017-11-04T01:24:45.999Z,79.60
2017-11-04T01:27:13.495Z,79.70
2017-11-04T01:29:41.037Z,80.10
2017-11-04T01:32:08.567Z,80.00
2017-11-04T01:34:36.850Z,79.80
2017-11-04T01:37:04.389Z,79.70
2017-11-04T01:39:32.694Z,80.30
2017-11-04T01:42:00.277Z,80.30
2017-11-04T01:44:27.770Z,79.80
2017-11-04T01:46:56.062Z,79.50
2017-11-04T01:49:24.370Z,79.60
2017-11-04T01:51:51.914Z,79.60
2017-11-04T01:54:18.953Z,79.60
2017-11-04T01:56:46.481Z,79.70
2017-11-04T01:59:14.000Z,79.70
2017-11-04T02:01:41.570Z,79.50
2017-11-04T02:04:09.077Z,79.80
2017-11-04T02:06:37.373Z,80.00
2017-11-04T02:09:04.868Z,80.00
2017-11-04T02:11:32.398Z,80.00
2017-11-04T02:13:59.905Z,80.40
2017-11-04T02:16:27.398Z,80.40
2017-11-04T02:18:54.965Z,80.30
2017-11-04T02:21:22.470Z,80.50
2017-11-04T02:23:50.000Z,80.20
2017-11-04T02:26:17.494Z,80.20
2017-11-04T02:28:45.025Z,80.20
2017-11-04T02:31:12.536Z,80.30
2017-11-04T02:33:40.034Z,80.20
2017-11-04T02:36:07.567Z,80.40
2017-11-04T02:38:35.065Z,80.50
2017-11-04T02:41:03.440Z,80.30
2017-11-04T02:43:32.451Z,80.30
2017-11-04T02:46:00.719Z,80.10
2017-11-04T02:48:28.261Z,80.10
2017-11-04T02:50:55.766Z,80.30
2017-11-04T02:53:24.059Z,80.30
2017-11-04T02:55:52.447Z,80.30
2017-11-04T02:58:19.973Z,80.40
2017-11-04T03:00:47.492Z,80.30
2017-11-04T03:03:15.829Z,79.90
2017-11-04T03:05:43.329Z,80.00
2017-11-04T03:08:10.847Z,79.80
2017-11-04T03:10:38.359Z,80.00
2017-11-04T03:13:05.883Z,80.10
2017-11-04T03:15:33.386Z,80.10
2017-11-04T03:18:01.668Z,80.20
2017-11-04T03:20:29.933Z,80.20
2017-11-04T03:22:58.239Z,80.20
2017-11-04T03:25:25.758Z,80.10
2017-11-04T03:27:54.031Z,81.30
2017-11-04T03:30:22.339Z,81.20
2017-11-04T03:32:49.856Z,80.40
2017-11-04T03:35:17.348Z,80.20
2017-11-04T03:37:44.870Z,80.10
2017-11-04T03:40:12.372Z,80.60
2017-11-04T03:42:39.892Z,81.70
2017-11-04T03:45:07.404Z,82.50
2017-11-04T03:47:34.908Z,83.20
2017-11-04T03:50:02.440Z,82.80
2017-11-04T03:52:29.965Z,83.70
2017-11-04T03:54:57.490Z,83.20
2017-11-04T03:57:25.807Z,83.30
2017-11-04T03:59:53.305Z,83.20
2017-11-04T04:02:20.824Z,83.20
2017-11-04T04:04:48.339Z,83.00
2017-11-04T04:07:16.629Z,82.70
2017-11-04T04:09:44.888Z,82.70
2017-11-04T04:12:13.184Z,82.80
2017-11-04T04:14:40.734Z,82.80
2017-11-04T04:17:09.012Z,82.60
2017-11-04T04:19:36.577Z,82.60
2017-11-04T04:22:04.084Z,82.60
2017-11-04T04:24:31.602Z,82.50
2017-11-04T04:26:59.112Z,82.30
2017-11-04T04:29:26.638Z,82.40
2017-11-04T04:31:54.169Z,82.20
2017-11-04T04:34:21.668Z,82.20
2017-11-04T04:36:49.197Z,82.10
2017-11-04T04:39:16.716Z,82.20
2017-11-04T04:41:44.989Z,82.10
2017-11-04T04:44:13.288Z,82.00
2017-11-04T04:46:40.779Z,82.00
2017-11-04T04:49:08.299Z,81.90
2017-11-04T04:51:35.821Z,82.10
2017-11-04T04:54:03.359Z,81.90
2017-11-04T04:56:30.858Z,82.60
2017-11-04T04:58:59.124Z,81.90
2017-11-04T05:01:26.650Z,81.90
2017-11-04T05:03:54.170Z,82.10
2017-11-04T05:06:21.681Z,82.10
2017-11-04T05:08:49.179Z,82.30
2017-11-04T05:11:16.701Z,82.20
2017-11-04T05:13:44.297Z,82.30
2017-11-04T05:16:11.978Z,82.30
2017-11-04T05:18:39.473Z,82.40
2017-11-04T05:21:07.009Z,82.40
2017-11-04T05:23:34.537Z,82.40
2017-11-04T05:26:02.036Z,82.30
2017-11-04T05:28:29.563Z,82.40
2017-11-04T05:30:57.065Z,82.40
2017-11-04T05:33:24.603Z,82.40
2017-11-04T05:35:52.117Z,82.50
2017-11-04T05:38:19.659Z,82.50
2017-11-04T05:40:47.173Z,82.50
2017-11-04T05:43:14.668Z,82.60
2017-11-04T05:45:42.985Z,82.70
2017-11-04T05:48:13.405Z,82.60
2017-11-04T05:50:40.936Z,82.70
2017-11-04T05:53:09.193Z,82.70
2017-11-04T05:55:36.689Z,82.70
2017-11-04T05:58:04.220Z,83.00
2017-11-04T06:00:32.490Z,83.10
2017-11-04T06:03:00.784Z,83.20
2017-11-04T06:05:29.057Z,83.70
2017-11-04T06:07:57.502Z,84.10
2017-11-04T06:10:25.006Z,84.00
2017-11-04T06:12:52.557Z,84.30
2017-11-04T06:15:20.829Z,84.70
2017-11-04T06:17:49.093Z,84.80
2017-11-04T06:20:17.393Z,84.70
2017-11-04T06:22:44.897Z,84.60
2017-11-04T06:25:12.424Z,84.30
2017-11-04T06:27:39.997Z,84.20
2017-11-04T06:30:07.517Z,84.30
2017-11-04T06:32:35.017Z,84.30
2017-11-04T06:35:02.541Z,84.40
2017-11-04T06:37:30.037Z,84.60
2017-11-04T06:39:57.557Z,84.70
2017-11-04T06:42:25.119Z,84.80
2017-11-04T06:44:52.609Z,84.90
2017-11-04T06:47:20.144Z,84.90
2017-11-04T06:49:47.648Z,85.00
2017-11-04T06:52:15.164Z,85.00
2017-11-04T06:54:42.686Z,85.10
2017-11-04T06:57:10.948Z,84.90
2017-11-04T06:59:38.660Z,84.80
2017-11-04T07:02:06.174Z,84.70
2017-11-04T07:04:33.700Z,84.60
2017-11-04T07:07:01.985Z,84.60
2017-11-04T07:09:29.496Z,84.70
2017-11-04T07:11:57.124Z,84.80
2017-11-04T07:14:24.807Z,84.70
2017-11-04T07:16:52.308Z,84.80
2017-11-04T07:19:19.833Z,84.90
2017-11-04T07:21:47.332Z,84.80
2017-11-04T07:24:14.869Z,84.80
2017-11-04T07:26:42.389Z,85.00
2017-11-04T07:29:09.893Z,84.70
2017-11-04T07:31:37.429Z,84.50
2017-11-04T07:34:04.942Z,84.30
2017-11-04T07:36:33.237Z,84.20
2017-11-04T07:39:00.752Z,84.10
2017-11-04T07:41:28.262Z,83.70
2017-11-04T07:43:55.800Z,83.80
2017-11-04T07:46:23.329Z,83.80
2017-11-04T07:48:50.864Z,83.50
2017-11-04T07:51:18.369Z,83.50
2017-11-04T07:53:46.687Z,83.20
2017-11-04T07:56:14.209Z,83.20
2017-11-04T07:58:41.717Z,83.20
2017-11-04T08:01:09.265Z,83.20
2017-11-04T08:03:36.789Z,83.00
2017-11-04T08:06:07.280Z,83.00
2017-11-04T08:08:34.785Z,82.90
2017-11-04T08:11:02.293Z,83.00
2017-11-04T08:13:29.854Z,82.80
2017-11-04T08:15:57.354Z,83.20
2017-11-04T08:18:24.927Z,83.20
2017-11-04T08:20:52.455Z,83.10
2017-11-04T08:23:20.029Z,82.80
2017-11-04T08:25:47.534Z,81.50
2017-11-04T08:28:15.071Z,81.00
2017-11-04T08:30:44.533Z,81.20
2017-11-04T08:33:12.073Z,80.90
2017-11-04T08:35:40.354Z,81.00
2017-11-04T08:38:08.654Z,80.90
2017-11-04T08:40:36.156Z,80.90
2017-11-04T08:43:03.678Z,80.60
2017-11-04T08:45:31.208Z,80.50
2017-11-04T08:47:58.715Z,80.40
2017-11-04T08:50:26.252Z,80.30
2017-11-04T08:52:53.767Z,80.20
2017-11-04T08:55:22.039Z,79.50
2017-11-04T08:57:49.639Z,79.50
2017-11-04T09:00:17.194Z,79.20
2017-11-04T09:02:44.725Z,79.40
2017-11-04T09:05:13.037Z,78.50
2017-11-04T09:07:40.590Z,78.30
2017-11-04T09:10:08.138Z,78.20
2017-11-04T09:12:35.650Z,77.80
2017-11-04T09:15:03.182Z,77.60
2017-11-04T09:17:30.728Z,77.50
2017-11-04T09:19:58.273Z,77.10
2017-11-04T09:22:25.784Z,77.20
2017-11-04T09:24:53.292Z,77.00
2017-11-04T09:27:20.824Z,76.90
2017-11-04T09:29:49.094Z,76.50
2017-11-04T09:32:17.395Z,76.50
2017-11-04T09:34:44.910Z,76.50
2017-11-04T09:37:12.437Z,76.30
2017-11-04T09:39:39.941Z,75.80
2017-11-04T09:42:08.212Z,74.60
2017-11-04T09:44:36.510Z,74.80
2017-11-04T09:47:04.019Z,74.40
2017-11-04T09:49:31.559Z,74.00
2017-11-04T09:51:59.065Z,73.80
2017-11-04T09:54:27.403Z,74.10
2017-11-04T09:56:54.909Z,74.70
2017-11-04T09:59:23.182Z,73.10
2017-11-04T10:01:51.487Z,72.70
2017-11-04T10:04:19.003Z,72.70
2017-11-04T10:06:47.309Z,72.60
2017-11-04T10:09:14.815Z,72.60
2017-11-04T10:11:43.138Z,73.10
2017-11-04T10:14:10.669Z,72.40
2017-11-04T10:16:38.960Z,72.00
2017-11-04T10:19:07.245Z,71.70
2017-11-04T10:21:34.752Z,71.70
2017-11-04T10:24:02.358Z,70.40
2017-11-04T10:26:30.637Z,70.30
2017-11-04T10:28:58.204Z,70.30
2017-11-04T10:31:25.751Z,70.50
2017-11-04T10:33:54.139Z,70.60
2017-11-04T10:36:21.645Z,70.50
2017-11-04T10:38:49.178Z,70.50
2017-11-04T10:41:16.681Z,70.20
2017-11-04T10:43:44.204Z,70.50
2017-11-04T10:46:11.734Z,70.60
2017-11-04T10:48:39.261Z,70.50
2017-11-04T10:51:07.553Z,68.70
2017-11-04T10:53:35.061Z,68.70
2017-11-04T10:56:02.561Z,68.90
2017-11-04T10:58:30.873Z,68.00
2017-11-04T11:00:58.409Z,68.00
2017-11-04T11:03:25.941Z,66.80
2017-11-04T11:05:54.219Z,66.50
2017-11-04T11:08:22.523Z,65.90
2017-11-04T11:10:50.065Z,65.70
2017-11-04T11:13:18.366Z,64.30
2017-11-04T11:15:45.896Z,64.30
2017-11-04T11:18:13.412Z,64.60
2017-11-04T11:20:41.037Z,64.00
2017-11-04T11:23:08.550Z,64.30
2017-11-04T11:25:36.103Z,64.50
2017-11-04T11:28:04.436Z,64.30
2017-11-04T11:30:31.998Z,63.30
2017-11-04T11:32:59.537Z,62.90
2017-11-04T11:35:27.048Z,62.60
2017-11-04T11:37:54.584Z,61.80
2017-11-04T11:40:22.135Z,61.20
2017-11-04T11:42:49.666Z,61.50
2017-11-04T11:45:17.205Z,60.70
2017-11-04T11:47:45.476Z,59.90
2017-11-04T11:50:13.796Z,59.80
2017-11-04T11:52:41.301Z,59.70
2017-11-04T11:55:08.844Z,60.40
2017-11-04T11:57:36.353Z,59.90
2017-11-04T12:00:03.894Z,59.40
2017-11-04T12:02:32.180Z,59.80
2017-11-04T12:04:59.678Z,59.80
2017-11-04T12:07:27.222Z,59.60
2017-11-04T12:09:54.737Z,60.00
2017-11-04T12:12:23.041Z,61.10
2017-11-04T12:14:50.548Z,61.00
2017-11-04T12:17:18.865Z,61.20
2017-11-04T12:19:46.427Z,61.30
2017-11-04T12:22:13.956Z,61.10
2017-11-04T12:24:42.253Z,61.60
2017-11-04T12:27:09.750Z,61.60
2017-11-04T12:29:37.277Z,61.50
2017-11-04T12:32:04.810Z,61.90
2017-11-04T12:34:33.509Z,62.60
2017-11-04T12:37:01.008Z,62.50
2017-11-04T12:39:28.539Z,62.60
2017-11-04T12:41:56.074Z,62.90
2017-11-04T12:44:24.354Z,63.60
2017-11-04T12:46:51.898Z,63.60
2017-11-04T12:49:20.194Z,63.50
2017-11-04T12:51:47.870Z,63.50
2017-11-04T12:54:15.413Z,63.10
2017-11-04T12:56:42.949Z,63.50
2017-11-04T12:59:11.257Z,64.30
2017-11-04T13:01:38.776Z,65.20
2017-11-04T13:04:06.310Z,64.20
2017-11-04T13:06:33.820Z,63.90
2017-11-04T13:09:01.352Z,64.30
2017-11-04T13:11:28.861Z,64.20
2017-11-04T13:13:56.402Z,65.10
2017-11-04T13:16:23.964Z,64.40
2017-11-04T13:18:51.546Z,64.60
2017-11-04T13:21:19.074Z,64.80
2017-11-04T13:23:46.596Z,64.30
2017-11-04T13:26:14.123Z,63.90
2017-11-04T13:28:41.660Z,63.70
2017-11-04T13:31:09.176Z,63.40
2017-11-04T13:33:37.492Z,61.20
2017-11-04T13:36:04.989Z,61.10
2017-11-04T13:38:33.267Z,59.20
2017-11-04T13:41:00.797Z,59.20
2017-11-04T13:43:28.328Z,58.40
2017-11-04T13:45:55.859Z,58.00
2017-11-04T13:48:24.142Z,57.20
2017-11-04T13:50:52.453Z,57.10
2017-11-04T13:53:19.951Z,57.00
2017-11-04T13:55:47.460Z,56.20
2017-11-04T13:58:14.981Z,56.50
2017-11-04T14:00:43.277Z,57.10
2017-11-04T14:03:10.817Z,57.10
2017-11-04T14:05:39.085Z,56.90
2017-11-04T14:08:06.632Z,56.80
2017-11-04T14:10:34.137Z,57.20
2017-11-04T14:13:01.647Z,57.60
2017-11-04T14:15:29.216Z,57.90
2017-11-04T14:17:57.497Z,58.90
2017-11-04T14:20:25.807Z,59.10
2017-11-04T14:22:53.357Z,59.10
2017-11-04T14:25:20.905Z,59.50
2017-11-04T14:27:48.420Z,60.60
2017-11-04T14:30:17.436Z,60.20
2017-11-04T14:32:44.969Z,60.10
2017-11-04T14:35:12.473Z,60.00
2017-11-04T14:37:40.014Z,59.90
2017-11-04T14:40:08.298Z,60.40
2017-11-04T14:42:37.035Z,60.60
2017-11-04T14:45:04.530Z,60.60
2017-11-04T14:47:32.794Z,60.70
2017-11-04T14:50:00.321Z,60.50
2017-11-04T14:52:27.833Z,60.40
2017-11-04T14:54:56.158Z,59.90
2017-11-04T14:57:23.653Z,59.90
2017-11-04T14:59:51.929Z,59.60
2017-11-04T15:02:19.458Z,59.60
2017-11-04T15:04:46.979Z,59.60
2017-11-04T15:07:14.528Z,59.70
2017-11-04T15:09:42.036Z,59.80
2017-11-04T15:12:09.564Z,59.80
2017-11-04T15:14:37.104Z,59.80
2017-11-04T15:17:04.632Z,59.90
2017-11-04T15:19:32.154Z,59.80
2017-11-04T15:21:59.733Z,60.20
2017-11-04T15:24:28.183Z,60.70
2017-11-04T15:26:55.701Z,60.70
2017-11-04T15:29:24.006Z,61.20
2017-11-04T15:31:51.503Z,61.20
2017-11-04T15:34:19.792Z,61.30
2017-11-04T15:36:48.081Z,61.60
2017-11-04T15:39:16.381Z,62.30
2017-11-04T15:41:43.918Z,62.30
2017-11-04T15:44:11.417Z,61.90
2017-11-04T15:46:38.958Z,62.50
2017-11-04T15:49:06.489Z,62.60
2017-11-04T15:51:34.782Z,62.70
2017-11-04T15:54:02.309Z,62.70
2017-11-04T15:56:30.704Z,63.30
2017-11-04T15:58:58.984Z,63.40
2017-11-04T16:01:26.534Z,64.20
2017-11-04T16:03:54.807Z,63.90
2017-11-04T16:06:23.070Z,64.30
2017-11-04T16:08:50.606Z,64.20
2017-11-04T16:11:18.131Z,64.50
2017-11-04T16:13:45.675Z,64.90
2017-11-04T16:16:13.202Z,65.10
2017-11-04T16:18:41.498Z,66.40
2017-11-04T16:21:09.765Z,65.80
2017-11-04T16:23:38.070Z,66.00
2017-11-04T16:26:05.592Z,65.90
2017-11-04T16:28:33.855Z,66.50
2017-11-04T16:31:01.406Z,66.40
2017-11-04T16:33:28.914Z,66.60
2017-11-04T16:35:56.444Z,66.90
2017-11-04T16:38:24.705Z,67.40
2017-11-04T16:40:53.013Z,68.50
2017-11-04T16:43:20.532Z,67.50
2017-11-04T16:45:48.095Z,67.60
2017-11-04T16:48:15.601Z,67.80
2017-11-04T16:50:43.170Z,69.10
2017-11-04T16:53:10.668Z,68.30
2017-11-04T16:55:38.191Z,68.70
2017-11-04T16:58:05.734Z,69.30
2017-11-04T17:00:33.252Z,69.70
2017-11-04T17:03:01.550Z,70.40
2017-11-04T17:05:29.073Z,70.30
2017-11-04T17:07:56.615Z,70.50
2017-11-04T17:10:24.129Z,70.80
2017-11-04T17:12:51.674Z,71.00
2017-11-04T17:15:19.951Z,71.10
2017-11-04T17:17:48.247Z,71.30
2017-11-04T17:20:15.767Z,71.30
2017-11-04T17:22:44.100Z,71.60
2017-11-04T17:25:11.615Z,71.60
2017-11-04T17:27:39.889Z,72.00
2017-11-04T17:30:08.187Z,71.90
2017-11-04T17:32:35.756Z,71.80
2017-11-04T17:35:03.276Z,72.20
2017-11-04T17:37:31.575Z,72.40
2017-11-04T17:39:59.115Z,72.30
2017-11-04T17:42:27.401Z,72.60
2017-11-04T17:44:54.956Z,72.60
2017-11-04T17:47:22.506Z,72.70
2017-11-04T17:49:50.804Z,73.00
2017-11-04T17:52:18.367Z,72.90
2017-11-04T17:54:45.897Z,72.90
2017-11-04T17:57:14.198Z,73.00
2017-11-04T17:59:41.760Z,73.00
2017-11-04T18:02:09.400Z,73.30
2017-11-04T18:04:37.026Z,73.10
2017-11-04T18:07:06.034Z,73.20
2017-11-04T18:09:34.311Z,73.30
2017-11-04T18:12:02.649Z,73.50
2017-11-04T18:14:30.173Z,73.50
2017-11-04T18:16:57.716Z,73.50
2017-11-04T18:19:25.990Z,73.70
2017-11-04T18:21:54.304Z,73.70
2017-11-04T18:24:21.813Z,73.70
2017-11-04T18:26:50.110Z,73.90
2017-11-04T18:29:17.686Z,73.90
2017-11-04T18:31:45.216Z,74.10
2017-11-04T18:34:13.514Z,74.70
2017-11-04T18:36:41.025Z,74.70
2017-11-04T18:39:10.076Z,74.60
2017-11-04T18:41:37.604Z,74.50
2017-11-04T18:44:05.121Z,74.60
2017-11-04T18:46:32.674Z,75.30
2017-11-04T18:49:00.190Z,74.60
2017-11-04T18:51:27.752Z,74.50
2017-11-04T18:53:55.266Z,74.50
2017-11-04T18:56:22.817Z,74.60
2017-11-04T18:58:50.337Z,74.60
2017-11-04T19:01:17.992Z,74.90
2017-11-04T19:03:45.524Z,75.00
2017-11-04T19:06:13.817Z,75.00
2017-11-04T19:08:41.345Z,74.90
2017-11-04T19:11:09.625Z,75.30
2017-11-04T19:13:37.185Z,75.30
2017-11-04T19:16:05.464Z,75.40
2017-11-04T19:18:32.989Z,75.30
2017-11-04T19:21:00.537Z,75.40
2017-11-04T19:23:28.046Z,75.60
2017-11-04T19:25:55.588Z,75.70
2017-11-04T19:28:23.897Z,76.30
2017-11-04T19:30:51.443Z,76.30
2017-11-04T19:33:18.986Z,76.50
2017-11-04T19:35:47.294Z,76.50
2017-11-04T19:38:14.851Z,76.40
2017-11-04T19:40:42.366Z,76.90
2017-11-04T19:43:10.635Z,76.30
2017-11-04T19:45:38.167Z,76.90
2017-11-04T19:48:05.709Z,77.20
2017-11-04T19:50:33.266Z,77.10
2017-11-04T19:53:00.785Z,77.30
2017-11-04T19:55:29.089Z,78.00
2017-11-04T19:57:56.614Z,77.90
2017-11-04T20:00:24.918Z,77.90
2017-11-04T20:02:52.451Z,77.90
2017-11-04T20:05:20.794Z,78.10
2017-11-04T20:07:48.446Z,78.10
2017-11-04T20:10:15.983Z,78.00
2017-11-04T20:12:43.546Z,78.00
2017-11-04T20:15:11.062Z,78.60
2017-11-04T20:17:39.361Z,79.40
2017-11-04T20:20:06.887Z,79.40
2017-11-04T20:22:35.222Z,79.80
2017-11-04T20:25:02.793Z,79.70
2017-11-04T20:27:30.341Z,79.70
2017-11-04T20:29:57.926Z,79.60
2017-11-04T20:32:25.453Z,79.40
2017-11-04T20:34:52.995Z,79.60
2017-11-04T20:37:20.523Z,79.50
2017-11-04T20:39:48.822Z,79.50
2017-11-04T20:42:16.496Z,79.50
2017-11-04T20:44:44.052Z,79.50
2017-11-04T20:47:11.597Z,79.80
2017-11-04T20:49:39.163Z,80.20
2017-11-04T20:52:06.675Z,80.30
2017-11-04T20:54:34.216Z,80.50
2017-11-04T20:57:01.841Z,80.00
2017-11-04T20:59:29.407Z,80.10
2017-11-04T21:01:56.915Z,80.10
2017-11-04T21:04:25.236Z,80.10
2017-11-04T21:06:52.800Z,80.10
2017-11-04T21:09:20.358Z,80.20
2017-11-04T21:11:47.935Z,80.10
2017-11-04T21:14:15.469Z,80.30
2017-11-04T21:16:43.031Z,80.20
2017-11-04T21:19:10.550Z,80.10
2017-11-04T21:21:38.846Z,80.40
2017-11-04T21:24:06.385Z,80.30
2017-11-04T21:26:34.663Z,80.50
2017-11-04T21:29:02.959Z,80.50
2017-11-04T21:31:30.507Z,80.50
2017-11-04T21:33:58.081Z,80.50
2017-11-04T21:36:25.659Z,80.50
2017-11-04T21:38:53.159Z,80.40
2017-11-04T21:41:21.457Z,80.10
2017-11-04T21:43:49.037Z,80.10
2017-11-04T21:46:16.579Z,79.90
2017-11-04T21:48:44.151Z,79.70
2017-11-04T21:51:11.668Z,79.50
2017-11-04T21:53:39.978Z,80.40
2017-11-04T21:56:07.506Z,79.40
2017-11-04T21:58:35.786Z,79.60
2017-11-04T22:01:04.221Z,80.00
2017-11-04T22:03:31.846Z,80.00
2017-11-04T22:05:59.393Z,80.40
2017-11-04T22:08:27.687Z,81.00
2017-11-04T22:10:55.643Z,80.90
2017-11-04T22:13:23.176Z,81.20
2017-11-04T22:15:51.453Z,81.20
2017-11-04T22:18:19.761Z,81.40
2017-11-04T22:20:47.296Z,81.30
2017-11-04T22:23:15.615Z,81.70
2017-11-04T22:25:43.127Z,81.70
2017-11-04T22:28:11.560Z,81.80
2017-11-04T22:30:39.063Z,81.70
2017-11-04T22:33:07.344Z,82.10
2017-11-04T22:35:35.686Z,82.40
2017-11-04T22:38:03.209Z,82.30
2017-11-04T22:40:30.730Z,83.50
2017-11-04T22:42:59.049Z,83.00
2017-11-04T22:45:26.604Z,83.00
2017-11-04T22:47:54.143Z,83.20
2017-11-04T22:50:21.711Z,83.10
2017-11-04T22:52:49.261Z,83.20
2017-11-04T22:55:16.767Z,83.00
2017-11-04T22:57:45.108Z,83.70
2017-11-04T23:00:12.767Z,83.40
2017-11-04T23:02:40.310Z,83.50
2017-11-04T23:05:07.822Z,83.50
2017-11-04T23:07:35.381Z,83.40
2017-11-04T23:10:02.900Z,83.40
2017-11-04T23:12:30.442Z,83.50
2017-11-04T23:14:57.981Z,83.60
2017-11-04T23:17:26.261Z,83.80
2017-11-04T23:19:54.567Z,84.10
2017-11-04T23:22:22.078Z,84.10
2017-11-04T23:24:49.596Z,84.40
2017-11-04T23:27:17.084Z,84.30
2017-11-04T23:29:44.536Z,84.60
2017-11-04T23:32:12.029Z,84.60
2017-11-04T23:34:39.485Z,84.50
2017-11-04T23:37:07.018Z,84.60
2017-11-04T23:39:34.465Z,84.60
2017-11-04T23:42:01.967Z,84.40
2017-11-04T23:44:29.430Z,84.30
2017-11-04T23:46:56.891Z,85.10
2017-11-04T23:49:24.379Z,84.20
2017-11-04T23:51:51.865Z,84.10
2017-11-04T23:54:20.203Z,84.50
2017-11-04T23:56:47.748Z,84.50
2017-11-04T23:59:15.245Z,84.50
